»·PEaware :: N350KT KPMD-KSJC

N350KT :: KPMD-KSJC

FLIGHT INFORMATION

Flight Status: Arrived
Operator: Privately registered:
United States
More flights under this callsign
Pilot: Aundrey S. (17120)
Aircraft: PILATUS PC-12 EAGLE
(PC12)
More flights by this aircraft type
Origin: KPMD Palmdale AF Plant 42
United States
Destination: KSJC Mineta San Jose Intl
United States
More flights between these airports :: More routes between these airports
Route: PMD V197 EHF T259 AVE V137 ROM
File this flight plan on PilotEdge
Remarks:
Altitude:
(Current/Filed)
22,000ft
Speed:
(Current/Filed)
300kts
Departed: 18-Nov-18 07:02 PM
Arrived: 18-Nov-18 08:10 PM
Distance/Time
Traveled:
249nm/1:08
Distance/Time
To Go:
Arrived

Flight Plot

Page will automatically refresh every two minutes.

Flight plan parsing failed; only flown route is shown


Map Options




Map Legend


Flown Route
Filed Route
Departure Airport
Arrival Airport
Navaid (VOR, NDB)
Fix

Horizontal Profiles

Position Reports

Time Latitude Longitude Heading Altitude Ground
Speed
18-Nov-18 18:49 34.620048 -118.089233 182 2535ft 0kts
18-Nov-18 18:50 34.620048 -118.089233 182 2535ft 0kts
18-Nov-18 18:51 34.620048 -118.089233 182 2535ft 0kts
18-Nov-18 18:52 34.620048 -118.089233 182 2535ft 0kts
18-Nov-18 18:53 34.620048 -118.089233 182 2535ft 0kts
18-Nov-18 18:54 34.620048 -118.089233 182 2535ft 0kts
18-Nov-18 18:55 34.620048 -118.089233 182 2535ft 0kts
18-Nov-18 18:56 34.620048 -118.089233 182 2535ft 0kts
18-Nov-18 18:57 34.620048 -118.089233 182 2535ft 0kts
18-Nov-18 18:58 34.620048 -118.089233 182 2535ft 0kts
18-Nov-18 18:59 34.620048 -118.089233 182 2535ft 0kts
18-Nov-18 19:00 34.620048 -118.089233 182 2535ft 0kts
18-Nov-18 19:01 34.620048 -118.089233 182 2535ft 0kts
18-Nov-18 19:02 34.620048 -118.089233 182 2535ft 0kts
18-Nov-18 19:03 34.620048 -118.089233 182 2535ft 0kts
18-Nov-18 19:04 34.619454 -118.089215 182 2536ft 4kts
18-Nov-18 19:05 34.627529 -118.075579 47 2596ft 124kts
18-Nov-18 19:06 34.652484 -118.052731 317 4140ft 131kts
18-Nov-18 19:07 34.663606 -118.101911 300 4829ft 202kts
18-Nov-18 19:08 34.703948 -118.159515 313 4821ft 238kts
18-Nov-18 19:09 34.746200 -118.214215 312 5850ft 213kts
18-Nov-18 19:10 34.784172 -118.263772 312 7328ft 191kts
18-Nov-18 19:11 34.819299 -118.309705 312 8552ft 190kts
18-Nov-18 19:12 34.855654 -118.357242 312 9693ft 194kts
18-Nov-18 19:13 34.892054 -118.404892 312 10771ft 197kts
18-Nov-18 19:14 34.929466 -118.453922 312 11818ft 200kts
18-Nov-18 19:15 34.967592 -118.503983 312 12801ft 204kts
18-Nov-18 19:16 35.008962 -118.558778 312 12849ft 237kts
18-Nov-18 19:17 35.057040 -118.616511 318 12848ft 250kts
18-Nov-18 19:18 35.105595 -118.669967 317 12848ft 256kts
18-Nov-18 19:19 35.158527 -118.729022 317 12847ft 264kts
18-Nov-18 19:20 35.212481 -118.790188 316 12847ft 266kts
18-Nov-18 19:21 35.266771 -118.851642 317 12847ft 266kts
18-Nov-18 19:22 35.321091 -118.913099 316 12847ft 266kts
18-Nov-18 19:23 35.375166 -118.974447 317 12921ft 263kts
18-Nov-18 19:24 35.423967 -119.030089 316 14306ft 232kts
18-Nov-18 19:25 35.469694 -119.082348 316 15693ft 219kts
18-Nov-18 19:26 35.494078 -119.147573 282 17066ft 212kts
18-Nov-18 19:27 35.506260 -119.217973 282 18201ft 214kts
18-Nov-18 19:28 35.519640 -119.291036 282 19104ft 223kts
18-Nov-18 19:29 35.533622 -119.366150 282 20004ft 228kts
18-Nov-18 19:30 35.547763 -119.442324 282 20902ft 230kts
18-Nov-18 19:31 35.561902 -119.518789 282 21798ft 230kts
18-Nov-18 19:32 35.576672 -119.598802 282 22023ft 254kts
18-Nov-18 19:33 35.592482 -119.684285 282 22022ft 268kts
18-Nov-18 19:34 35.609058 -119.774743 282 22021ft 273kts
18-Nov-18 19:35 35.625658 -119.865859 282 22021ft 273kts
18-Nov-18 19:36 35.642193 -119.957102 283 22020ft 273kts
18-Nov-18 19:37 35.686763 -120.030554 309 22022ft 273kts
18-Nov-18 19:38 35.735595 -120.101978 310 22020ft 273kts
18-Nov-18 19:39 35.785842 -120.172190 311 22021ft 273kts
18-Nov-18 19:40 35.835999 -120.241747 311 22021ft 273kts
18-Nov-18 19:41 35.886434 -120.311808 311 22021ft 273kts
18-Nov-18 19:42 35.936700 -120.381776 311 22021ft 273kts
18-Nov-18 19:43 35.986979 -120.451903 311 22021ft 273kts
18-Nov-18 19:44 36.037256 -120.522175 311 22021ft 273kts
18-Nov-18 19:45 36.087509 -120.592561 311 22021ft 273kts
18-Nov-18 19:46 36.134975 -120.658618 314 22019ft 274kts
18-Nov-18 19:47 36.192771 -120.719492 320 21904ft 271kts
18-Nov-18 19:48 36.251837 -120.778889 320 20277ft 281kts
18-Nov-18 19:49 36.312133 -120.840051 320 18475ft 279kts
18-Nov-18 19:50 36.371783 -120.900841 320 16675ft 277kts
18-Nov-18 19:51 36.429930 -120.960030 320 14753ft 267kts
18-Nov-18 19:52 36.486729 -121.018350 320 12933ft 269kts
18-Nov-18 19:53 36.544395 -121.077481 320 11137ft 270kts
18-Nov-18 19:54 36.601264 -121.135949 319 9905ft 256kts
18-Nov-18 19:55 36.655716 -121.192593 320 9902ft 259kts
18-Nov-18 19:56 36.710942 -121.250341 320 9902ft 260kts
18-Nov-18 19:57 36.766760 -121.307634 320 9902ft 260kts
18-Nov-18 19:58 36.822316 -121.364219 320 9845ft 262kts
18-Nov-18 19:59 36.876919 -121.418749 321 8051ft 236kts
18-Nov-18 20:00 36.925223 -121.467964 320 6212ft 216kts
18-Nov-18 20:01 36.971309 -121.515470 320 4421ft 231kts
18-Nov-18 20:02 37.020541 -121.566121 320 4019ft 221kts
18-Nov-18 20:03 37.066894 -121.613468 321 4020ft 212kts
18-Nov-18 20:04 37.073333 -121.676160 295 4024ft 208kts
18-Nov-18 20:05 37.124641 -121.691628 349 4026ft 207kts
18-Nov-18 20:06 37.174450 -121.725187 320 4050ft 207kts
18-Nov-18 20:07 37.215788 -121.769486 319 3447ft 183kts
18-Nov-18 20:08 37.250976 -121.807585 318 2721ft 143kts
18-Nov-18 20:09 37.279537 -121.839019 318 2073ft 136kts
18-Nov-18 20:10 37.306059 -121.867961 318 1398ft 125kts
18-Nov-18 20:11 37.331819 -121.895878 317 736ft 122kts
18-Nov-18 20:12 37.356395 -121.923017 318 88ft 114kts
18-Nov-18 20:13 37.366602 -121.935359 225 43ft 1kts
18-Nov-18 20:14 37.365413 -121.936959 207 43ft 11kts
18-Nov-18 20:15 37.363751 -121.938093 182 46ft 5kts
18-Nov-18 20:16 37.363626 -121.937955 63 46ft 0kts
18-Nov-18 20:17 37.363626 -121.937955 63 46ft 0kts
18-Nov-18 20:18 37.363626 -121.937955 63 46ft 0kts
18-Nov-18 20:19 37.363626 -121.937955 63 46ft 0kts
18-Nov-18 20:20 37.363626 -121.937955 63 46ft 0kts
18-Nov-18 20:21 37.363626 -121.937955 63 46ft 0kts
18-Nov-18 20:22 37.363626 -121.937955 63 46ft 0kts
18-Nov-18 20:23 37.363626 -121.937955 63 46ft 0kts
18-Nov-18 20:24 37.363626 -121.937955 63 46ft 0kts
18-Nov-18 20:25 37.363626 -121.937955 63 46ft 0kts
18-Nov-18 20:26 37.363626 -121.937955 63 46ft 0kts
18-Nov-18 20:27 37.363626 -121.937955 63 46ft 0kts

Navigation Log

Ident Type
Flight plan parsing failed, navigation log unavailable